Wetterdaten: Woche 08.03.10 - 14.03.10 (KW10)
Datum Zeit Temp. Innen Temp. Aussen UV X Diff Temp. Feuchte Inne Feuchte Auss Sonnenschein Luftdruck Regen ab 0,1 Wind Sonnenschein Windben
08.03.2010 00:00 11,8 C -1,5 C 0,0 UV-I 0,0 C 32 % 61 % 0 % 1030,0 hPa 0,0 l/m 0,0 km/h (0 Bft) 0,00 h 0,0 km/h (0 Bft)
08.03.2010 01:00 11,6 C -1,9 C 0,0 UV-I 0,0 C 32 % 63 % 0 % 1030,0 hPa 0,0 l/m 0,0 km/h (0 Bft) 0,00 h 0,0 km/h (0 Bft)
08.03.2010 02:00 11,4 C -2,1 C 0,0 UV-I 0,0 C 33 % 65 % 0 % 1030,1 hPa 0,0 l/m 0,0 km/h (0 Bft) 0,00 h 0,0 km/h (0 Bft)
08.03.2010 03:00 11,2 C -2,1 C 0,0 UV-I 0,0 C 33 % 67 % 0 % 1028,8 hPa 0,0 l/m 0,0 km/h (0 Bft) 0,00 h 0,0 km/h (0 Bft)
08.03.2010 04:00 11,2 C -1,8 C 0,0 UV-I 0,0 C 33 % 66 % 0 % 1028,3 hPa 0,0 l/m 0,1 km/h (0 Bft) 0,00 h 0,3 km/h (0 Bft)
08.03.2010 05:00 11,2 C -1,4 C 0,0 UV-I 0,0 C 33 % 66 % 0 % 1028,2 hPa 0,0 l/m 0,4 km/h (0 Bft) 0,00 h 0,4 km/h (0 Bft)
08.03.2010 06:00 11,2 C -1,3 C 0,0 UV-I 0,0 C 33 % 67 % 0 % 1027,7 hPa 0,0 l/m 0,2 km/h (0 Bft) 0,00 h 0,4 km/h (0 Bft)
08.03.2010 07:00 11,2 C -1,2 C 0,0 UV-I 0,0 C 33 % 66 % 0 % 1027,2 hPa 0,0 l/m 0,0 km/h (0 Bft) 0,00 h 0,0 km/h (0 Bft)
08.03.2010 08:00 11,1 C -0,9 C 0,0 UV-I 0,0 C 34 % 68 % 0 % 1026,9 hPa 0,0 l/m 0,0 km/h (0 Bft) 0,00 h 0,0 km/h (0 Bft)
08.03.2010 09:00 11,3 C -0,5 C 0,1 UV-I 0,4 C 34 % 67 % 12 % 1026,8 hPa 0,0 l/m 0,1 km/h (0 Bft) 0,00 h 0,0 km/h (0 Bft)
08.03.2010 10:00 11,6 C 0,2 C 0,4 UV-I 1,2 C 33 % 62 % 34 % 1026,7 hPa 0,0 l/m 0,7 km/h (0 Bft) 0,00 h 0,9 km/h (0 Bft)
08.03.2010 11:00 11,7 C 0,7 C 0,9 UV-I 1,2 C 32 % 56 % 35 % 1026,6 hPa 0,0 l/m 1,5 km/h (1 Bft) 0,00 h 1,8 km/h (1 Bft)
08.03.2010 12:00 11,8 C 1,1 C 1,2 UV-I 1,4 C 31 % 54 % 39 % 1026,3 hPa 0,0 l/m 3,5 km/h (1 Bft) 0,03 h 3,6 km/h (1 Bft)
08.03.2010 13:00 12,3 C 2,1 C 3,1 UV-I 4,9 C 31 % 53 % 100 % 1026,4 hPa 0,0 l/m 2,1 km/h (1 Bft) 0,90 h 2,5 km/h (1 Bft)
08.03.2010 14:00 12,8 C 2,5 C 2,1 UV-I 3,9 C 31 % 55 % 99 % 1025,7 hPa 0,0 l/m 3,1 km/h (1 Bft) 1,00 h 3,0 km/h (1 Bft)
08.03.2010 15:00 13,4 C 2,8 C 2,8 UV-I 4,4 C 32 % 59 % 98 % 1025,7 hPa 0,0 l/m 4,9 km/h (1 Bft) 0,93 h 4,0 km/h (1 Bft)
08.03.2010 16:00 15,2 C 3,8 C 1,0 UV-I 7,2 C 30 % 57 % 100 % 1026,5 hPa 0,0 l/m 4,1 km/h (1 Bft) 0,80 h 3,9 km/h (1 Bft)
08.03.2010 17:00 15,4 C 3,4 C 0,0 UV-I 2,7 C 29 % 60 % 72 % 1024,8 hPa 0,0 l/m 5,5 km/h (1 Bft) 0,73 h 3,7 km/h (1 Bft)
08.03.2010 18:00 14,0 C 1,9 C 0,0 UV-I 0,0 C 31 % 71 % 0 % 1024,0 hPa 0,0 l/m 6,7 km/h (2 Bft) 0,00 h 5,5 km/h (1 Bft)
08.03.2010 19:00 12,7 C 0,9 C 0,0 UV-I 0,0 C 35 % 78 % 0 % 1024,0 hPa 0,0 l/m 1,6 km/h (1 Bft) 0,00 h 1,4 km/h (1 Bft)
08.03.2010 20:00 12,1 C 0,4 C 0,0 UV-I 0,0 C 36 % 78 % 0 % 1023,8 hPa 0,0 l/m 0,3 km/h (0 Bft) 0,00 h 0,8 km/h (0 Bft)
08.03.2010 21:00 11,9 C -0,1 C 0,0 UV-I 0,0 C 37 % 78 % 0 % 1023,6 hPa 0,0 l/m 0,2 km/h (0 Bft) 0,00 h 0,6 km/h (0 Bft)
08.03.2010 22:00 11,7 C -0,4 C 0,0 UV-I 0,0 C 37 % 79 % 0 % 1024,0 hPa 0,0 l/m 0,0 km/h (0 Bft) 0,00 h 0,3 km/h (0 Bft)
08.03.2010 23:00 11,6 C -0,6 C 0,0 UV-I 0,0 C 37 % 80 % 0 % 1024,1 hPa 0,0 l/m 0,3 km/h (0 Bft) 0,00 h 0,4 km/h (0 Bft)
09.03.2010 00:00 11,5 C -0,9 C 0,0 UV-I 0,0 C 38 % 81 % 0 % 1024,0 hPa 0,0 l/m 0,3 km/h (0 Bft) 0,00 h 0,3 km/h (0 Bft)
09.03.2010 01:00 11,4 C -1,0 C 0,0 UV-I 0,0 C 38 % 81 % 0 % 1023,9 hPa 0,0 l/m 0,6 km/h (0 Bft) 0,00 h 0,4 km/h (0 Bft)
09.03.2010 02:00 11,3 C -1,2 C 0,0 UV-I 0,0 C 38 % 81 % 0 % 1024,1 hPa 0,0 l/m 0,2 km/h (0 Bft) 0,00 h 0,0 km/h (0 Bft)
09.03.2010 03:00 11,1 C -1,5 C 0,0 UV-I 0,0 C 37 % 81 % 0 % 1024,1 hPa 0,0 l/m 0,1 km/h (0 Bft) 0,00 h 0,0 km/h (0 Bft)
09.03.2010 04:00 11,2 C -1,7 C 0,0 UV-I 0,0 C 37 % 80 % 0 % 1024,2 hPa 0,0 l/m 0,0 km/h (0 Bft) 0,00 h 0,0 km/h (0 Bft)
09.03.2010 05:00 11,1 C -2,0 C 0,0 UV-I 0,0 C 37 % 80 % 0 % 1024,2 hPa 0,0 l/m 0,0 km/h (0 Bft) 0,00 h 0,1 km/h (0 Bft)
09.03.2010 06:00 11,0 C -2,2 C 0,0 UV-I 0,0 C 37 % 80 % 0 % 1024,7 hPa 0,0 l/m 0,1 km/h (0 Bft) 0,00 h 0,1 km/h (0 Bft)
09.03.2010 07:00 11,0 C -2,5 C 0,0 UV-I 0,0 C 37 % 81 % 0 % 1024,8 hPa 0,0 l/m 0,5 km/h (0 Bft) 0,00 h 0,7 km/h (0 Bft)
09.03.2010 08:00 10,8 C -2,3 C 0,0 UV-I 0,0 C 37 % 81 % 0 % 1025,0 hPa 0,0 l/m 0,3 km/h (0 Bft) 0,00 h 0,3 km/h (0 Bft)
09.03.2010 09:00 11,0 C -1,0 C 0,3 UV-I 6,8 C 37 % 77 % 82 % 1025,9 hPa 0,0 l/m 1,7 km/h (1 Bft) 0,77 h 2,4 km/h (1 Bft)
09.03.2010 10:00 11,2 C 1,0 C 2,8 UV-I 9,0 C 37 % 67 % 100 % 1026,2 hPa 0,0 l/m 3,4 km/h (1 Bft) 0,97 h 3,7 km/h (1 Bft)
09.03.2010 11:00 11,5 C 2,5 C 6,1 UV-I 8,8 C 37 % 59 % 100 % 1026,4 hPa 0,0 l/m 4,0 km/h (1 Bft) 1,00 h 4,0 km/h (1 Bft)
09.03.2010 12:00 12,1 C 3,7 C 8,7 UV-I 8,7 C 36 % 52 % 100 % 1026,7 hPa 0,0 l/m 4,3 km/h (1 Bft) 0,93 h 4,0 km/h (1 Bft)
09.03.2010 13:00 13,9 C 4,8 C 8,3 UV-I 8,8 C 34 % 48 % 100 % 1028,7 hPa 0,0 l/m 4,7 km/h (1 Bft) 0,87 h 3,8 km/h (1 Bft)
09.03.2010 14:00 15,8 C 5,4 C 8,6 UV-I 8,5 C 31 % 43 % 100 % 1031,9 hPa 0,0 l/m 4,6 km/h (1 Bft) 1,00 h 4,0 km/h (1 Bft)
09.03.2010 15:00 16,9 C 6,0 C 5,5 UV-I 7,1 C 29 % 37 % 100 % 1030,7 hPa 0,0 l/m 4,9 km/h (1 Bft) 1,00 h 3,5 km/h (1 Bft)
09.03.2010 16:00 17,4 C 6,2 C 1,8 UV-I 5,6 C 28 % 32 % 100 % 1028,8 hPa 0,0 l/m 5,1 km/h (1 Bft) 0,93 h 4,9 km/h (1 Bft)
09.03.2010 17:00 16,7 C 5,5 C 0,3 UV-I 2,5 C 28 % 35 % 67 % 1026,9 hPa 0,0 l/m 2,9 km/h (1 Bft) 0,87 h 2,8 km/h (1 Bft)
09.03.2010 18:00 15,2 C 3,6 C 0,0 UV-I 0,0 C 29 % 44 % 0 % 1026,3 hPa 0,0 l/m 1,1 km/h (1 Bft) 0,00 h 1,1 km/h (0 Bft)
09.03.2010 19:00 13,8 C 2,0 C 0,0 UV-I 0,0 C 30 % 52 % 0 % 1026,6 hPa 0,0 l/m 0,4 km/h (0 Bft) 0,00 h 0,3 km/h (0 Bft)
09.03.2010 20:00 13,0 C 1,0 C 0,0 UV-I 0,0 C 31 % 57 % 0 % 1027,2 hPa 0,0 l/m 0,3 km/h (0 Bft) 0,00 h 0,4 km/h (0 Bft)
09.03.2010 21:00 12,6 C 0,4 C 0,0 UV-I 0,0 C 32 % 61 % 0 % 1027,0 hPa 0,0 l/m 1,1 km/h (1 Bft) 0,00 h 1,1 km/h (1 Bft)
09.03.2010 22:00 12,3 C 0,2 C 0,0 UV-I 0,0 C 33 % 61 % 0 % 1026,7 hPa 0,0 l/m 1,1 km/h (0 Bft) 0,00 h 0,7 km/h (0 Bft)
09.03.2010 23:00 12,0 C -0,1 C 0,0 UV-I 0,0 C 33 % 62 % 0 % 1026,6 hPa 0,0 l/m 0,1 km/h (0 Bft) 0,00 h 0,0 km/h (0 Bft)
10.03.2010 00:00 11,9 C -0,5 C 0,0 UV-I 0,0 C 33 % 63 % 0 % 1026,4 hPa 0,0 l/m 0,0 km/h (0 Bft) 0,00 h 0,1 km/h (0 Bft)
10.03.2010 01:00 11,8 C -0,9 C 0,0 UV-I 0,0 C 33 % 64 % 0 % 1026,0 hPa 0,0 l/m 0,0 km/h (0 Bft) 0,00 h 0,0 km/h (0 Bft)
10.03.2010 02:00 11,6 C -1,0 C 0,0 UV-I 0,0 C 33 % 64 % 0 % 1025,8 hPa 0,0 l/m 0,0 km/h (0 Bft) 0,00 h 0,3 km/h (0 Bft)
10.03.2010 03:00 11,6 C -1,3 C 0,0 UV-I 0,0 C 33 % 65 % 0 % 1025,6 hPa 0,0 l/m 0,0 km/h (0 Bft) 0,00 h 0,0 km/h (0 Bft)
10.03.2010 04:00 11,4 C -1,4 C 0,0 UV-I 0,0 C 33 % 65 % 0 % 1025,3 hPa 0,0 l/m 0,0 km/h (0 Bft) 0,00 h 0,0 km/h (0 Bft)
10.03.2010 05:00 11,4 C -1,4 C 0,0 UV-I 0,0 C 33 % 66 % 0 % 1024,9 hPa 0,0 l/m 1,3 km/h (1 Bft) 0,00 h 1,3 km/h (1 Bft)
10.03.2010 06:00 11,2 C -1,7 C 0,0 UV-I 0,0 C 33 % 69 % 0 % 1024,8 hPa 0,0 l/m 0,1 km/h (0 Bft) 0,00 h 0,0 km/h (0 Bft)
10.03.2010 07:00 11,2 C -1,7 C 0,0 UV-I 0,0 C 34 % 70 % 0 % 1024,8 hPa 0,0 l/m 0,4 km/h (0 Bft) 0,00 h 0,8 km/h (0 Bft)
10.03.2010 08:00 11,3 C -1,0 C 0,2 UV-I 0,0 C 36 % 68 % 0 % 1024,8 hPa 0,0 l/m 1,5 km/h (1 Bft) 0,00 h 2,1 km/h (1 Bft)
10.03.2010 09:00 11,6 C 0,5 C 0,6 UV-I 6,8 C 38 % 63 % 84 % 1024,9 hPa 0,0 l/m 3,1 km/h (1 Bft) 0,83 h 3,0 km/h (1 Bft)
10.03.2010 10:00 11,7 C 2,4 C 3,0 UV-I 9,5 C 38 % 58 % 100 % 1025,2 hPa 0,0 l/m 3,2 km/h (1 Bft) 1,00 h 3,5 km/h (1 Bft)
10.03.2010 11:00 12,0 C 4,3 C 7,4 UV-I 9,0 C 38 % 52 % 100 % 1025,0 hPa 0,0 l/m 5,8 km/h (2 Bft) 1,00 h 5,7 km/h (1 Bft)
10.03.2010 12:00 12,5 C 5,9 C 9,6 UV-I 8,4 C 38 % 48 % 100 % 1024,5 hPa 0,0 l/m 6,7 km/h (2 Bft) 0,97 h 5,9 km/h (2 Bft)
10.03.2010 13:00 14,1 C 7,5 C 9,0 UV-I 8,3 C 35 % 45 % 100 % 1025,7 hPa 0,0 l/m 7,0 km/h (2 Bft) 0,90 h 5,1 km/h (1 Bft)
10.03.2010 14:00 16,0 C 8,9 C 9,2 UV-I 7,1 C 32 % 44 % 100 % 1028,5 hPa 0,0 l/m 6,6 km/h (2 Bft) 1,00 h 4,9 km/h (1 Bft)
10.03.2010 15:00 17,1 C 9,5 C 5,4 UV-I 5,3 C 30 % 44 % 100 % 1026,4 hPa 0,0 l/m 6,8 km/h (2 Bft) 0,97 h 5,1 km/h (1 Bft)
10.03.2010 16:00 17,4 C 9,4 C 1,8 UV-I 4,2 C 30 % 44 % 100 % 1024,0 hPa 0,0 l/m 6,6 km/h (2 Bft) 0,95 h 5,0 km/h (1 Bft)
10.03.2010 17:00 16,7 C 8,2 C 0,3 UV-I 1,6 C 31 % 46 % 47 % 1021,9 hPa 0,0 l/m 6,4 km/h (2 Bft) 0,67 h 5,4 km/h (1 Bft)
10.03.2010 18:00 15,4 C 5,7 C 0,0 UV-I 0,0 C 32 % 55 % 0 % 1021,2 hPa 0,0 l/m 5,9 km/h (2 Bft) 0,00 h 4,5 km/h (1 Bft)
10.03.2010 19:00 14,1 C 3,4 C 0,0 UV-I 0,0 C 35 % 64 % 0 % 1021,4 hPa 0,0 l/m 7,5 km/h (2 Bft) 0,00 h 5,8 km/h (2 Bft)
10.03.2010 20:00 13,3 C 1,7 C 0,0 UV-I 0,0 C 36 % 70 % 0 % 1021,5 hPa 0,0 l/m 6,3 km/h (2 Bft) 0,00 h 4,9 km/h (1 Bft)
10.03.2010 21:00 13,0 C 0,7 C 0,0 UV-I 0,0 C 37 % 74 % 0 % 1021,4 hPa 0,0 l/m 4,6 km/h (1 Bft) 0,00 h 4,7 km/h (1 Bft)
10.03.2010 22:00 12,7 C 0,1 C 0,0 UV-I 0,0 C 38 % 76 % 0 % 1020,9 hPa 0,0 l/m 2,9 km/h (1 Bft) 0,00 h 2,4 km/h (1 Bft)
10.03.2010 23:00 12,6 C -0,2 C 0,0 UV-I 0,0 C 38 % 78 % 0 % 1020,8 hPa 0,0 l/m 2,4 km/h (1 Bft) 0,00 h 2,5 km/h (1 Bft)
11.03.2010 00:00 12,4 C -0,4 C 0,0 UV-I 0,0 C 39 % 80 % 0 % 1020,6 hPa 0,0 l/m 1,4 km/h (1 Bft) 0,00 h 2,1 km/h (1 Bft)
11.03.2010 01:00 12,4 C -0,6 C 0,0 UV-I 0,0 C 39 % 81 % 0 % 1020,1 hPa 0,0 l/m 1,2 km/h (1 Bft) 0,00 h 1,6 km/h (1 Bft)
11.03.2010 02:00 12,2 C -0,9 C 0,0 UV-I 0,0 C 39 % 81 % 0 % 1019,9 hPa 0,0 l/m 1,8 km/h (1 Bft) 0,00 h 2,0 km/h (1 Bft)
11.03.2010 03:00 12,1 C -1,1 C 0,0 UV-I 0,0 C 39 % 83 % 0 % 1019,6 hPa 0,0 l/m 3,2 km/h (1 Bft) 0,00 h 3,1 km/h (1 Bft)
11.03.2010 04:00 12,0 C -1,2 C 0,0 UV-I 0,0 C 39 % 83 % 0 % 1019,3 hPa 0,0 l/m 4,7 km/h (1 Bft) 0,00 h 5,1 km/h (1 Bft)
11.03.2010 05:00 11,9 C -1,2 C 0,0 UV-I 0,0 C 39 % 83 % 0 % 1019,6 hPa 0,0 l/m 6,5 km/h (2 Bft) 0,00 h 5,2 km/h (1 Bft)
11.03.2010 06:00 11,9 C -1,2 C 0,0 UV-I 0,0 C 39 % 83 % 0 % 1019,7 hPa 0,0 l/m 5,5 km/h (1 Bft) 0,00 h 4,6 km/h (1 Bft)
11.03.2010 07:00 11,8 C -1,3 C 0,0 UV-I 0,0 C 39 % 83 % 0 % 1019,8 hPa 0,0 l/m 6,6 km/h (2 Bft) 0,00 h 5,4 km/h (1 Bft)
11.03.2010 08:00 11,9 C -1,2 C 0,0 UV-I 0,0 C 39 % 83 % 0 % 1019,9 hPa 0,0 l/m 7,5 km/h (2 Bft) 0,00 h 5,8 km/h (2 Bft)
11.03.2010 09:00 11,9 C -0,9 C 0,1 UV-I 0,0 C 39 % 84 % 0 % 1020,2 hPa 0,0 l/m 7,7 km/h (2 Bft) 0,00 h 6,5 km/h (2 Bft)
11.03.2010 10:00 12,0 C -0,7 C 0,4 UV-I 0,0 C 39 % 83 % 1 % 1020,0 hPa 0,0 l/m 7,0 km/h (2 Bft) 0,00 h 5,5 km/h (1 Bft)
11.03.2010 11:00 12,1 C -0,5 C 0,7 UV-I 0,1 C 39 % 82 % 2 % 1020,0 hPa 0,0 l/m 6,4 km/h (2 Bft) 0,00 h 5,3 km/h (1 Bft)
11.03.2010 12:00 12,2 C 0,1 C 1,3 UV-I 0,6 C 39 % 81 % 18 % 1019,7 hPa 0,0 l/m 6,9 km/h (2 Bft) 0,00 h 5,6 km/h (1 Bft)
11.03.2010 13:00 12,4 C 0,6 C 1,3 UV-I 1,4 C 38 % 80 % 41 % 1019,1 hPa 0,0 l/m 5,1 km/h (1 Bft) 0,00 h 4,1 km/h (1 Bft)
11.03.2010 14:00 12,4 C 1,0 C 1,3 UV-I 1,1 C 38 % 79 % 32 % 1018,6 hPa 0,0 l/m 6,2 km/h (2 Bft) 0,00 h 5,4 km/h (1 Bft)
11.03.2010 15:00 12,4 C 1,5 C 0,7 UV-I 0,8 C 38 % 80 % 23 % 1018,6 hPa 0,0 l/m 6,5 km/h (2 Bft) 0,00 h 4,9 km/h (1 Bft)
11.03.2010 16:00 12,6 C 1,9 C 1,1 UV-I 2,1 C 39 % 79 % 61 % 1018,2 hPa 0,0 l/m 1,3 km/h (1 Bft) 0,33 h 1,2 km/h (1 Bft)
11.03.2010 17:00 12,8 C 2,2 C 0,4 UV-I 1,7 C 39 % 78 % 47 % 1018,2 hPa 0,0 l/m 0,4 km/h (0 Bft) 0,70 h 0,5 km/h (0 Bft)
11.03.2010 18:00 12,3 C 1,2 C 0,0 UV-I 0,0 C 39 % 80 % 0 % 1017,9 hPa 0,0 l/m 0,0 km/h (0 Bft) 0,00 h 0,1 km/h (0 Bft)
11.03.2010 19:00 11,9 C 0,2 C 0,0 UV-I 0,0 C 39 % 83 % 0 % 1018,1 hPa 0,0 l/m 0,0 km/h (0 Bft) 0,00 h 0,0 km/h (0 Bft)
11.03.2010 20:00 11,6 C 0,2 C 0,0 UV-I 0,0 C 40 % 85 % 0 % 1018,0 hPa 0,0 l/m 0,0 km/h (0 Bft) 0,00 h 0,0 km/h (0 Bft)
11.03.2010 21:00 11,5 C 0,4 C 0,0 UV-I 0,0 C 41 % 86 % 0 % 1017,9 hPa 0,0 l/m 0,1 km/h (0 Bft) 0,00 h 0,0 km/h (0 Bft)
11.03.2010 22:00 11,4 C 0,5 C 0,0 UV-I 0,0 C 41 % 86 % 0 % 1017,6 hPa 0,0 l/m 0,1 km/h (0 Bft) 0,00 h 0,1 km/h (0 Bft)
11.03.2010 23:00 11,4 C 0,7 C 0,0 UV-I 0,0 C 41 % 86 % 0 % 1017,4 hPa 0,0 l/m 0,6 km/h (0 Bft) 0,00 h 0,7 km/h (0 Bft)
12.03.2010 00:00 11,4 C 0,9 C 0,0 UV-I 0,0 C 42 % 86 % 0 % 1017,3 hPa 0,0 l/m 0,5 km/h (0 Bft) 0,00 h 1,0 km/h (0 Bft)
12.03.2010 01:00 11,4 C 1,1 C 0,0 UV-I 0,0 C 43 % 87 % 0 % 1017,1 hPa 0,0 l/m 0,6 km/h (0 Bft) 0,00 h 0,8 km/h (0 Bft)
12.03.2010 02:00 11,4 C 1,2 C 0,0 UV-I 0,0 C 44 % 88 % 0 % 1017,1 hPa 0,0 l/m 0,2 km/h (0 Bft) 0,00 h 0,3 km/h (0 Bft)
12.03.2010 03:00 11,4 C 1,2 C 0,0 UV-I 0,0 C 44 % 90 % 0 % 1016,7 hPa 0,0 l/m 0,0 km/h (0 Bft) 0,00 h 0,2 km/h (0 Bft)
12.03.2010 04:00 11,4 C 1,2 C 0,0 UV-I 0,0 C 45 % 90 % 0 % 1016,4 hPa 0,0 l/m 0,1 km/h (0 Bft) 0,00 h 0,2 km/h (0 Bft)
12.03.2010 05:00 11,4 C 1,3 C 0,0 UV-I 0,0 C 46 % 91 % 0 % 1016,4 hPa 0,2 l/m 0,6 km/h (0 Bft) 0,00 h 0,7 km/h (0 Bft)
12.03.2010 06:00 11,4 C 1,5 C 0,0 UV-I 0,0 C 46 % 92 % 0 % 1016,6 hPa 0,0 l/m 1,4 km/h (1 Bft) 0,00 h 1,3 km/h (1 Bft)
12.03.2010 07:00 11,2 C 1,5 C 0,0 UV-I 0,0 C 46 % 92 % 0 % 1016,7 hPa 0,0 l/m 2,1 km/h (1 Bft) 0,00 h 1,6 km/h (1 Bft)
12.03.2010 08:00 11,4 C 1,6 C 0,0 UV-I 0,0 C 47 % 92 % 0 % 1017,2 hPa 0,0 l/m 2,2 km/h (1 Bft) 0,00 h 2,4 km/h (1 Bft)
12.03.2010 09:00 11,5 C 1,9 C 0,1 UV-I 0,0 C 47 % 92 % 0 % 1017,5 hPa 0,0 l/m 2,8 km/h (1 Bft) 0,00 h 3,0 km/h (1 Bft)
12.03.2010 10:00 11,6 C 2,3 C 0,2 UV-I 0,2 C 47 % 92 % 5 % 1018,1 hPa 0,0 l/m 3,8 km/h (1 Bft) 0,00 h 3,9 km/h (1 Bft)
12.03.2010 11:00 11,7 C 2,8 C 0,4 UV-I 0,6 C 47 % 91 % 18 % 1018,4 hPa 0,0 l/m 3,4 km/h (1 Bft) 0,00 h 3,0 km/h (1 Bft)
12.03.2010 12:00 11,9 C 3,5 C 0,8 UV-I 1,3 C 47 % 90 % 37 % 1018,6 hPa 0,0 l/m 2,7 km/h (1 Bft) 0,00 h 2,7 km/h (1 Bft)
12.03.2010 13:00 12,0 C 4,5 C 1,4 UV-I 1,7 C 47 % 87 % 50 % 1018,6 hPa 0,0 l/m 3,9 km/h (1 Bft) 0,00 h 3,6 km/h (1 Bft)
12.03.2010 14:00 12,4 C 5,7 C 2,3 UV-I 2,6 C 47 % 82 % 74 % 1018,8 hPa 0,0 l/m 4,6 km/h (1 Bft) 0,10 h 4,7 km/h (1 Bft)
12.03.2010 15:00 13,0 C 7,0 C 1,9 UV-I 2,3 C 45 % 74 % 65 % 1019,3 hPa 0,0 l/m 3,9 km/h (1 Bft) 0,27 h 4,2 km/h (1 Bft)
12.03.2010 16:00 12,9 C 7,1 C 0,2 UV-I 0,2 C 43 % 68 % 6 % 1018,9 hPa 0,0 l/m 3,4 km/h (1 Bft) 0,00 h 3,2 km/h (1 Bft)
12.03.2010 17:00 12,5 C 6,6 C 0,0 UV-I 0,0 C 44 % 69 % 0 % 1018,7 hPa 0,0 l/m 1,6 km/h (1 Bft) 0,00 h 2,5 km/h (1 Bft)
12.03.2010 18:00 12,3 C 6,0 C 0,0 UV-I 0,0 C 44 % 71 % 0 % 1018,8 hPa 0,0 l/m 0,4 km/h (0 Bft) 0,00 h 0,1 km/h (0 Bft)
12.03.2010 19:00 12,2 C 5,4 C 0,0 UV-I 0,0 C 44 % 73 % 0 % 1019,1 hPa 0,0 l/m 0,0 km/h (0 Bft) 0,00 h 0,1 km/h (0 Bft)
12.03.2010 20:00 12,2 C 4,8 C 0,0 UV-I 0,0 C 45 % 76 % 0 % 1019,4 hPa 0,0 l/m 0,0 km/h (0 Bft) 0,00 h 0,0 km/h (0 Bft)
12.03.2010 21:00 12,1 C 4,3 C 0,0 UV-I 0,0 C 45 % 77 % 0 % 1019,8 hPa 0,0 l/m 0,3 km/h (0 Bft) 0,00 h 0,4 km/h (0 Bft)
12.03.2010 22:00 12,1 C 4,1 C 0,0 UV-I 0,0 C 45 % 80 % 0 % 1020,3 hPa 0,0 l/m 1,2 km/h (1 Bft) 0,00 h 1,2 km/h (1 Bft)
12.03.2010 23:00 12,1 C 3,9 C 0,0 UV-I 0,0 C 45 % 80 % 0 % 1020,8 hPa 0,0 l/m 0,7 km/h (0 Bft) 0,00 h 1,1 km/h (1 Bft)
13.03.2010 00:00 12,1 C 3,8 C 0,0 UV-I 0,0 C 45 % 80 % 0 % 1020,7 hPa 0,0 l/m 0,7 km/h (0 Bft) 0,00 h 0,6 km/h (0 Bft)
13.03.2010 01:00 12,0 C 3,4 C 0,0 UV-I 0,0 C 45 % 81 % 0 % 1020,7 hPa 0,0 l/m 0,7 km/h (0 Bft) 0,00 h 0,9 km/h (0 Bft)
13.03.2010 02:00 11,9 C 3,3 C 0,0 UV-I 0,0 C 46 % 84 % 0 % 1020,9 hPa 0,0 l/m 2,3 km/h (1 Bft) 0,00 h 3,8 km/h (1 Bft)
13.03.2010 03:00 11,9 C 3,5 C 0,0 UV-I 0,0 C 47 % 86 % 0 % 1021,2 hPa 0,0 l/m 3,1 km/h (1 Bft) 0,00 h 3,0 km/h (1 Bft)
13.03.2010 04:00 12,0 C 3,6 C 0,0 UV-I 0,0 C 47 % 88 % 0 % 1021,4 hPa 0,0 l/m 2,4 km/h (1 Bft) 0,00 h 2,2 km/h (1 Bft)
13.03.2010 05:00 12,1 C 3,7 C 0,0 UV-I 0,0 C 48 % 88 % 0 % 1021,8 hPa 0,0 l/m 2,7 km/h (1 Bft) 0,00 h 2,5 km/h (1 Bft)
13.03.2010 06:00 12,1 C 3,6 C 0,0 UV-I 0,0 C 48 % 88 % 0 % 1022,2 hPa 0,0 l/m 2,4 km/h (1 Bft) 0,00 h 2,0 km/h (1 Bft)
13.03.2010 07:00 12,1 C 3,6 C 0,0 UV-I 0,0 C 48 % 89 % 0 % 1022,6 hPa 0,0 l/m 4,1 km/h (1 Bft) 0,00 h 4,8 km/h (1 Bft)
13.03.2010 08:00 12,1 C 3,9 C 0,1 UV-I 0,0 C 49 % 90 % 1 % 1023,2 hPa 0,0 l/m 5,2 km/h (1 Bft) 0,00 h 5,8 km/h (2 Bft)
13.03.2010 09:00 12,2 C 4,7 C 1,1 UV-I 2,9 C 49 % 88 % 70 % 1023,7 hPa 0,0 l/m 6,9 km/h (2 Bft) 0,40 h 7,8 km/h (2 Bft)
13.03.2010 10:00 12,4 C 5,5 C 0,9 UV-I 0,9 C 49 % 84 % 27 % 1024,1 hPa 0,0 l/m 7,2 km/h (2 Bft) 0,00 h 6,4 km/h (2 Bft)
13.03.2010 11:00 12,5 C 6,1 C 1,2 UV-I 1,0 C 49 % 82 % 28 % 1024,4 hPa 0,0 l/m 7,0 km/h (2 Bft) 0,00 h 6,3 km/h (2 Bft)
13.03.2010 12:00 12,6 C 6,4 C 1,3 UV-I 0,8 C 49 % 82 % 22 % 1024,7 hPa 0,0 l/m 6,4 km/h (2 Bft) 0,00 h 6,4 km/h (2 Bft)
13.03.2010 13:00 12,7 C 6,9 C 0,8 UV-I 0,6 C 49 % 80 % 18 % 1024,8 hPa 0,0 l/m 5,9 km/h (2 Bft) 0,00 h 5,7 km/h (1 Bft)
13.03.2010 14:00 12,8 C 7,5 C 0,5 UV-I 0,5 C 48 % 76 % 14 % 1024,5 hPa 0,0 l/m 7,1 km/h (2 Bft) 0,00 h 7,2 km/h (2 Bft)
13.03.2010 15:00 12,8 C 7,7 C 0,5 UV-I 0,2 C 49 % 74 % 7 % 1024,4 hPa 0,0 l/m 8,3 km/h (2 Bft) 0,00 h 6,6 km/h (2 Bft)
13.03.2010 16:00 12,8 C 7,6 C 0,1 UV-I 0,0 C 48 % 74 % 0 % 1024,1 hPa 0,0 l/m 9,5 km/h (2 Bft) 0,00 h 8,2 km/h (2 Bft)
13.03.2010 17:00 12,8 C 7,2 C 0,0 UV-I 0,0 C 48 % 74 % 0 % 1024,1 hPa 0,0 l/m 9,7 km/h (2 Bft) 0,00 h 8,2 km/h (2 Bft)
13.03.2010 18:00 12,6 C 6,7 C 0,0 UV-I 0,0 C 48 % 74 % 0 % 1024,4 hPa 0,0 l/m 9,1 km/h (2 Bft) 0,00 h 7,7 km/h (2 Bft)
13.03.2010 19:00 12,5 C 6,1 C 0,0 UV-I 0,0 C 48 % 78 % 0 % 1024,8 hPa 0,0 l/m 9,2 km/h (2 Bft) 0,00 h 9,0 km/h (2 Bft)
13.03.2010 20:00 12,4 C 5,7 C 0,0 UV-I 0,0 C 48 % 80 % 0 % 1025,1 hPa 0,0 l/m 7,9 km/h (2 Bft) 0,00 h 7,4 km/h (2 Bft)
13.03.2010 21:00 12,4 C 5,2 C 0,0 UV-I 0,0 C 49 % 83 % 0 % 1025,2 hPa 0,0 l/m 7,8 km/h (2 Bft) 0,00 h 7,8 km/h (2 Bft)
13.03.2010 22:00 12,4 C 4,9 C 0,0 UV-I 0,0 C 49 % 83 % 0 % 1024,8 hPa 0,0 l/m 5,2 km/h (1 Bft) 0,00 h 4,5 km/h (1 Bft)
13.03.2010 23:00 12,3 C 4,8 C 0,0 UV-I 0,0 C 49 % 82 % 0 % 1024,8 hPa 0,0 l/m 5,5 km/h (1 Bft) 0,00 h 5,3 km/h (1 Bft)
14.03.2010 00:00 12,3 C 4,7 C 0,0 UV-I 0,0 C 49 % 82 % 0 % 1024,2 hPa 0,0 l/m 6,2 km/h (2 Bft) 0,00 h 6,1 km/h (2 Bft)
14.03.2010 01:00 12,3 C 4,5 C 0,0 UV-I 0,0 C 49 % 82 % 0 % 1024,0 hPa 0,0 l/m 6,4 km/h (2 Bft) 0,00 h 6,0 km/h (2 Bft)
14.03.2010 02:00 12,2 C 4,5 C 0,0 UV-I 0,0 C 48 % 82 % 0 % 1023,1 hPa 0,0 l/m 6,6 km/h (2 Bft) 0,00 h 6,3 km/h (2 Bft)
14.03.2010 03:00 12,2 C 4,7 C 0,0 UV-I 0,0 C 49 % 82 % 0 % 1022,5 hPa 0,0 l/m 7,2 km/h (2 Bft) 0,00 h 6,1 km/h (2 Bft)
14.03.2010 04:00 12,2 C 4,6 C 0,0 UV-I 0,0 C 49 % 83 % 0 % 1021,9 hPa 0,0 l/m 6,7 km/h (2 Bft) 0,00 h 5,4 km/h (1 Bft)
14.03.2010 05:00 12,2 C 4,6 C 0,0 UV-I 0,0 C 49 % 84 % 0 % 1021,7 hPa 0,0 l/m 7,4 km/h (2 Bft) 0,00 h 6,1 km/h (2 Bft)
14.03.2010 06:00 12,2 C 4,7 C 0,0 UV-I 0,0 C 50 % 84 % 0 % 1021,5 hPa 0,0 l/m 5,7 km/h (1 Bft) 0,00 h 5,0 km/h (1 Bft)
14.03.2010 07:00 12,2 C 4,7 C 0,0 UV-I 0,0 C 50 % 84 % 0 % 1021,5 hPa 0,0 l/m 5,9 km/h (2 Bft) 0,00 h 5,2 km/h (1 Bft)
14.03.2010 08:00 12,2 C 4,8 C 0,0 UV-I 0,0 C 50 % 85 % 0 % 1021,3 hPa 0,0 l/m 7,5 km/h (2 Bft) 0,00 h 5,8 km/h (2 Bft)
14.03.2010 09:00 12,2 C 5,0 C 0,0 UV-I 0,0 C 51 % 86 % 0 % 1021,6 hPa 0,0 l/m 6,9 km/h (2 Bft) 0,00 h 5,4 km/h (1 Bft)
14.03.2010 10:00 12,2 C 5,2 C 0,1 UV-I 0,0 C 52 % 88 % 0 % 1021,8 hPa 0,2 l/m 6,0 km/h (2 Bft) 0,00 h 5,2 km/h (1 Bft)
14.03.2010 11:00 12,3 C 5,8 C 0,9 UV-I 0,3 C 53 % 89 % 8 % 1021,8 hPa 0,0 l/m 8,4 km/h (2 Bft) 0,00 h 7,3 km/h (2 Bft)
14.03.2010 12:00 12,6 C 6,7 C 2,0 UV-I 1,1 C 53 % 86 % 31 % 1022,0 hPa 0,0 l/m 10,8 km/h (2 Bft) 0,00 h 11,0 km/h (2 Bft)
14.03.2010 13:00 12,9 C 7,4 C 1,1 UV-I 0,5 C 52 % 82 % 14 % 1021,7 hPa 0,0 l/m 11,0 km/h (2 Bft) 0,00 h 10,2 km/h (2 Bft)
14.03.2010 14:00 12,9 C 7,6 C 0,3 UV-I 0,0 C 52 % 80 % 1 % 1020,8 hPa 0,0 l/m 11,1 km/h (2 Bft) 0,00 h 9,2 km/h (2 Bft)
14.03.2010 15:00 12,8 C 7,7 C 0,6 UV-I 0,2 C 53 % 82 % 6 % 1020,8 hPa 0,0 l/m 9,4 km/h (2 Bft) 0,00 h 7,4 km/h (2 Bft)
14.03.2010 16:00 12,9 C 7,3 C 0,2 UV-I 0,0 C 53 % 85 % 0 % 1020,9 hPa 1,1 l/m 10,7 km/h (2 Bft) 0,00 h 9,6 km/h (2 Bft)
14.03.2010 17:00 12,8 C 6,7 C 0,2 UV-I 0,0 C 54 % 87 % 0 % 1021,0 hPa 0,0 l/m 11,0 km/h (2 Bft) 0,00 h 10,3 km/h (2 Bft)
14.03.2010 18:00 12,8 C 6,4 C 0,0 UV-I 0,0 C 54 % 87 % 0 % 1021,0 hPa 0,0 l/m 8,1 km/h (2 Bft) 0,00 h 8,3 km/h (2 Bft)
14.03.2010 19:00 12,7 C 6,1 C 0,0 UV-I 0,0 C 54 % 87 % 0 % 1021,2 hPa 0,0 l/m 6,6 km/h (2 Bft) 0,00 h 7,3 km/h (2 Bft)
14.03.2010 20:00 12,6 C 6,0 C 0,0 UV-I 0,0 C 54 % 87 % 0 % 1021,3 hPa 0,0 l/m 9,1 km/h (2 Bft) 0,00 h 7,9 km/h (2 Bft)
14.03.2010 21:00 12,4 C 5,9 C 0,0 UV-I 0,0 C 54 % 87 % 0 % 1021,7 hPa 0,0 l/m 7,6 km/h (2 Bft) 0,00 h 6,9 km/h (2 Bft)
14.03.2010 22:00 12,6 C 5,9 C 0,0 UV-I 0,0 C 54 % 89 % 0 % 1021,9 hPa 0,0 l/m 5,4 km/h (1 Bft) 0,00 h 5,5 km/h (1 Bft)
14.03.2010 23:00 12,7 C 5,6 C 0,0 UV-I 0,0 C 54 % 89 % 0 % 1022,3 hPa 0,0 l/m 3,1 km/h (1 Bft) 0,00 h 3,2 km/h (1 Bft)
Min-Datum _ 09.03.10 09.03.10 08.03.10 08.03.10 09.03.10 09.03.10 08.03.10 12.03.10 - 08.03.10 - 08.03.10
_ Min-Zeit 07:22 07:02 00:00 00:00 15:38 16:42 00:00 04:13 - 00:00 - 00:00
Minimum _ 10,8 C -2,5 C 0,0 UV-I 0,0 C 28 % 31 % 0 % 1016,4 hPa - 0,0 km/h (0 Bft) - 0,0 km/h (0 Bft)
Max-Datum _ 10.03.10 10.03.10 10.03.10 09.03.10 14.03.10 12.03.10 08.03.10 09.03.10 14.03.10 14.03.10 08.03.10 14.03.10
_ Max-Zeit 16:00 15:36 12:24 09:48 20:06 06:14 12:56 14:12 16:20 13:14 12:56 13:30
Maximum _ 17,5 C 9,7 C 11,7 UV-I 10,4 C 55 % 92 % 100 % 1032,6 hPa 1,1 l/m 14,9 km/h
W-SW (3 Bft)
0,03 h 38,3 km/h
W-SW (5 Bft)
Durchschnitt _ 12,4 C 2,6 C 0,8 UV-I 1,1 C 41 % 75 % 18 % 1022,8 hPa #1,4 l/m 3,6 km/h (1 Bft) #22:49 h 3,3 km/h (1 Bft)
© 2012 W. Hausmann